createdAt,value
2022-08-11T11:09:01.489Z,101011.50
2022-08-11T11:14:27.295Z,101015.59
2022-08-11T11:19:30.858Z,101006.41
2022-08-11T11:24:45.185Z,101006.78
2022-08-11T11:30:00.915Z,101003.31
2022-08-11T11:35:26.702Z,100999.25
2022-08-11T11:40:31.519Z,100988.81
2022-08-11T11:45:36.770Z,100995.03
2022-08-11T11:50:40.216Z,100993.53
2022-08-11T11:55:43.881Z,100987.50
2022-08-11T12:01:06.301Z,100979.41
2022-08-11T12:06:12.134Z,100980.53
2022-08-11T12:11:33.965Z,100967.13
2022-08-11T12:16:40.514Z,100959.25
2022-08-11T12:21:59.427Z,100963.91
2022-08-11T12:27:25.111Z,100939.59
2022-08-11T12:32:32.254Z,100934.25
2022-08-11T12:37:40.404Z,100929.22
2022-08-11T12:43:04.009Z,100921.41
2022-08-11T12:49:01.039Z,100918.25
2022-08-11T12:54:03.664Z,100915.06
2022-08-11T12:59:26.477Z,100911.09
2022-08-11T13:04:50.077Z,100907.22
2022-08-11T13:09:55.446Z,100903.94
2022-08-11T13:14:59.956Z,100897.72
2022-08-11T13:20:06.233Z,100895.84
2022-08-11T13:25:14.941Z,100887.47
2022-08-11T13:30:40.323Z,100884.75
2022-08-11T13:35:49.516Z,100887.69
2022-08-11T13:40:55.918Z,100878.53
2022-08-11T13:46:13.387Z,100871.59
2022-08-11T13:51:35.121Z,100874.50
2022-08-11T13:56:40.746Z,100867.59
2022-08-11T14:02:03.453Z,100857.28
2022-08-11T14:07:18.620Z,100854.28
2022-08-11T14:12:43.390Z,100846.00
2022-08-11T14:17:50.405Z,100838.53
2022-08-11T14:22:56.539Z,100830.03
2022-08-11T14:28:34.037Z,100833.56
2022-08-11T14:33:22.697Z,100835.97
2022-08-11T14:38:27.698Z,100841.16
2022-08-11T14:44:12.962Z,100831.72
2022-08-11T14:49:15.016Z,100828.66
2022-08-11T14:54:37.020Z,100826.38
2022-08-11T14:59:40.560Z,100818.63
2022-08-11T15:04:43.656Z,100817.69
2022-08-11T15:15:30.728Z,100813.16
2022-08-11T15:20:53.569Z,100817.63
2022-08-11T15:26:03.002Z,100806.53
2022-08-11T15:31:24.345Z,100794.03
2022-08-11T15:36:47.828Z,100789.06
2022-08-11T15:42:19.688Z,100785.91
2022-08-11T15:47:26.881Z,100782.88
2022-08-11T15:52:38.773Z,100773.63
2022-08-11T15:58:01.601Z,100768.72
2022-08-11T16:03:23.192Z,100770.03
2022-08-11T16:08:32.773Z,100767.69
2022-08-11T16:13:57.263Z,100765.41
2022-08-11T16:19:05.122Z,100753.78
2022-08-11T16:27:03.321Z,100760.56
2022-08-11T16:29:38.213Z,100751.66
2022-08-11T16:34:59.821Z,100734.41
2022-08-11T16:40:03.176Z,100740.59
2022-08-11T16:45:26.357Z,100744.25
2022-08-11T16:50:30.213Z,100729.75
2022-08-11T16:55:51.573Z,100736.13
2022-08-11T17:00:58.951Z,100735.00
2022-08-11T17:06:21.082Z,100719.94
2022-08-11T17:11:44.343Z,100725.34
2022-08-11T17:16:51.930Z,100730.81
2022-08-11T17:22:13.238Z,100729.00
2022-08-11T17:27:19.084Z,100724.84
2022-08-11T17:32:55.816Z,100732.63
2022-08-11T17:38:05.183Z,100709.72
2022-08-11T17:43:27.766Z,100716.34
2022-08-11T17:48:35.746Z,100723.13
2022-08-11T17:54:24.376Z,100723.28
2022-08-11T17:59:49.324Z,100737.56
2022-08-11T18:04:55.345Z,100738.41
2022-08-11T18:10:17.779Z,100733.06
2022-08-11T18:15:38.263Z,100740.22
2022-08-11T18:21:12.089Z,100732.13
2022-08-11T18:26:36.511Z,100749.81
2022-08-11T18:32:02.521Z,100750.84
2022-08-11T18:37:30.911Z,100748.00
2022-08-11T18:42:52.849Z,100743.09
2022-08-11T18:48:17.798Z,100737.09
2022-08-11T18:53:45.719Z,100750.69
2022-08-11T18:59:08.100Z,100742.16
2022-08-11T19:04:30.777Z,100745.75
2022-08-11T19:09:54.774Z,100764.28
2022-08-11T19:15:17.805Z,100766.13
2022-08-11T19:20:41.705Z,100769.25
2022-08-11T19:26:05.029Z,100776.25
2022-08-11T19:31:27.080Z,100785.47
2022-08-11T19:36:48.566Z,100778.75
2022-08-11T19:42:11.418Z,100785.59
2022-08-11T19:47:32.881Z,100779.47
2022-08-11T19:52:54.813Z,100788.84
2022-08-11T19:58:16.798Z,100775.13
2022-08-11T20:03:37.096Z,100785.50
2022-08-11T20:09:00.612Z,100778.09
2022-08-11T20:14:24.276Z,100779.63
2022-08-11T20:19:56.620Z,100787.03
2022-08-11T20:25:17.619Z,100788.91
2022-08-11T20:30:39.676Z,100789.69
2022-08-11T20:35:59.772Z,100797.28
2022-08-11T20:41:21.817Z,100801.50
2022-08-11T20:46:44.778Z,100797.47
2022-08-11T20:52:06.325Z,100798.53
2022-08-11T20:57:58.813Z,100799.53
2022-08-11T21:03:11.265Z,100798.38
2022-08-11T21:08:35.065Z,100799.47
2022-08-11T21:13:58.254Z,100806.81
2022-08-11T21:20:06.611Z,100816.50
2022-08-11T21:25:06.484Z,100810.88
2022-08-11T21:30:28.008Z,100810.31
2022-08-11T21:35:50.514Z,100801.09
2022-08-11T21:41:11.486Z,100806.03
2022-08-11T21:46:35.309Z,100810.34
2022-08-11T21:51:57.904Z,100810.69
2022-08-11T21:57:19.330Z,100814.63
2022-08-11T22:02:40.293Z,100821.09
2022-08-11T22:08:02.630Z,100818.38
2022-08-11T22:13:22.741Z,100813.44
2022-08-11T22:18:43.781Z,100821.81
2022-08-11T22:24:07.717Z,100823.72
2022-08-11T22:29:41.326Z,100822.69
2022-08-11T22:35:10.848Z,100816.97
2022-08-11T22:40:33.371Z,100815.47
2022-08-11T22:45:53.578Z,100811.69
2022-08-11T22:51:14.658Z,100807.88
2022-08-11T22:56:37.637Z,100809.97
2022-08-11T23:01:59.381Z,100813.63
2022-08-11T23:07:50.059Z,100817.91
2022-08-11T23:13:03.451Z,100820.06
2022-08-11T23:18:24.841Z,100817.16
2022-08-11T23:23:47.605Z,100826.31
2022-08-11T23:29:11.936Z,100825.75
2022-08-11T23:34:41.757Z,100823.66
2022-08-11T23:40:17.347Z,100815.28
2022-08-11T23:45:42.622Z,100820.25
2022-08-11T23:51:03.377Z,100815.69
2022-08-11T23:56:25.132Z,100813.28
